sensor_id;sensor_type;location;lat;lon;timestamp;pressure;altitude;pressure_sealevel;temperature;humidity
49178;BME280;35016;55.674;37.468;2023-05-12T00:01:45;99661.84;;;10.52;57.51
49178;BME280;35016;55.674;37.468;2023-05-12T00:04:12;99660.72;;;10.48;57.95
49178;BME280;35016;55.674;37.468;2023-05-12T00:06:40;99661.50;;;10.43;57.88
49178;BME280;35016;55.674;37.468;2023-05-12T00:09:07;99668.97;;;10.36;57.89
49178;BME280;35016;55.674;37.468;2023-05-12T00:11:35;99665.72;;;10.34;57.85
49178;BME280;35016;55.674;37.468;2023-05-12T00:14:03;99667.03;;;10.32;58.35
49178;BME280;35016;55.674;37.468;2023-05-12T00:16:30;99668.38;;;10.29;58.05
49178;BME280;35016;55.674;37.468;2023-05-12T00:18:58;99660.75;;;10.26;58.13
49178;BME280;35016;55.674;37.468;2023-05-12T00:21:25;99660.91;;;10.19;58.36
49178;BME280;35016;55.674;37.468;2023-05-12T00:23:52;99658.72;;;10.16;58.30
49178;BME280;35016;55.674;37.468;2023-05-12T00:26:19;99665.75;;;10.17;58.40
49178;BME280;35016;55.674;37.468;2023-05-12T00:28:46;99658.16;;;10.14;57.77
49178;BME280;35016;55.674;37.468;2023-05-12T00:31:14;99654.88;;;10.12;57.98
49178;BME280;35016;55.674;37.468;2023-05-12T00:33:41;99655.91;;;10.11;57.54
49178;BME280;35016;55.674;37.468;2023-05-12T00:36:08;99648.03;;;10.10;57.72
49178;BME280;35016;55.674;37.468;2023-05-12T00:38:36;99654.88;;;10.12;57.69
49178;BME280;35016;55.674;37.468;2023-05-12T00:41:03;99659.44;;;10.12;58.05
49178;BME280;35016;55.674;37.468;2023-05-12T00:43:30;99652.63;;;10.09;57.61
49178;BME280;35016;55.674;37.468;2023-05-12T00:45:58;99648.28;;;10.08;58.07
49178;BME280;35016;55.674;37.468;2023-05-12T00:48:26;99647.97;;;10.05;57.79
49178;BME280;35016;55.674;37.468;2023-05-12T00:50:55;99651.25;;;10.07;57.59
49178;BME280;35016;55.674;37.468;2023-05-12T00:53:23;99652.56;;;10.04;58.03
49178;BME280;35016;55.674;37.468;2023-05-12T00:55:53;99647.66;;;10.01;57.80
49178;BME280;35016;55.674;37.468;2023-05-12T00:58:21;99650.63;;;10.00;57.69
49178;BME280;35016;55.674;37.468;2023-05-12T01:00:48;99647.34;;;9.98;57.62
49178;BME280;35016;55.674;37.468;2023-05-12T01:03:17;99645.72;;;9.97;58.09
49178;BME280;35016;55.674;37.468;2023-05-12T01:05:48;99643.25;;;9.95;57.86
49178;BME280;35016;55.674;37.468;2023-05-12T01:08:18;99646.22;;;9.93;57.94
49178;BME280;35016;55.674;37.468;2023-05-12T01:10:47;99652.97;;;9.91;57.77
49178;BME280;35016;55.674;37.468;2023-05-12T01:13:16;99645.09;;;9.89;57.97
49178;BME280;35016;55.674;37.468;2023-05-12T01:15:46;99639.94;;;9.88;57.84
49178;BME280;35016;55.674;37.468;2023-05-12T01:18:14;99647.50;;;9.86;57.94
49178;BME280;35016;55.674;37.468;2023-05-12T01:20:42;99643.97;;;9.85;57.78
49178;BME280;35016;55.674;37.468;2023-05-12T01:23:11;99642.06;;;9.86;57.71
49178;BME280;35016;55.674;37.468;2023-05-12T01:25:40;99634.75;;;9.86;57.85
49178;BME280;35016;55.674;37.468;2023-05-12T01:28:08;99648.06;;;9.88;57.53
49178;BME280;35016;55.674;37.468;2023-05-12T01:30:38;99642.63;;;9.88;57.65
49178;BME280;35016;55.674;37.468;2023-05-12T01:33:11;99641.25;;;9.85;57.46
49178;BME280;35016;55.674;37.468;2023-05-12T01:35:38;99647.22;;;9.87;57.57
49178;BME280;35016;55.674;37.468;2023-05-12T01:38:05;99648.31;;;9.86;57.63
49178;BME280;35016;55.674;37.468;2023-05-12T01:40:37;99641.25;;;9.85;57.50
49178;BME280;35016;55.674;37.468;2023-05-12T01:43:05;99646.91;;;9.84;57.80
49178;BME280;35016;55.674;37.468;2023-05-12T01:45:32;99641.16;;;9.80;57.76
49178;BME280;35016;55.674;37.468;2023-05-12T01:47:59;99642.31;;;9.84;57.78
49178;BME280;35016;55.674;37.468;2023-05-12T01:50:27;99644.22;;;9.84;57.90
49178;BME280;35016;55.674;37.468;2023-05-12T01:52:54;99643.38;;;9.83;57.49
49178;BME280;35016;55.674;37.468;2023-05-12T01:55:21;99641.25;;;9.85;57.31
49178;BME280;35016;55.674;37.468;2023-05-12T01:57:52;99641.25;;;9.85;57.25
49178;BME280;35016;55.674;37.468;2023-05-12T02:00:19;99639.94;;;9.88;57.60
49178;BME280;35016;55.674;37.468;2023-05-12T02:02:50;99652.16;;;9.90;57.22
49178;BME280;35016;55.674;37.468;2023-05-12T02:05:17;99636.97;;;9.89;57.02
49178;BME280;35016;55.674;37.468;2023-05-12T02:07:47;99645.72;;;9.97;57.22
49178;BME280;35016;55.674;37.468;2023-05-12T02:10:16;99646.28;;;9.99;57.28
49178;BME280;35016;55.674;37.468;2023-05-12T02:12:47;99645.78;;;10.02;57.39
49178;BME280;35016;55.674;37.468;2023-05-12T02:15:15;99642.56;;;10.05;56.98
49178;BME280;35016;55.674;37.468;2023-05-12T02:17:45;99643.94;;;10.07;56.87
49178;BME280;35016;55.674;37.468;2023-05-12T02:20:14;99658.16;;;10.14;56.35
49178;BME280;35016;55.674;37.468;2023-05-12T02:22:42;99653.03;;;10.18;56.55
49178;BME280;35016;55.674;37.468;2023-05-12T02:25:09;99640.31;;;10.18;56.24
49178;BME280;35016;55.674;37.468;2023-05-12T02:27:36;99655.88;;;10.28;56.36
49178;BME280;35016;55.674;37.468;2023-05-12T02:30:05;99652.91;;;10.30;56.12
49178;BME280;35016;55.674;37.468;2023-05-12T02:32:33;99645.34;;;10.32;55.80
49178;BME280;35016;55.674;37.468;2023-05-12T02:35:01;99647.84;;;10.38;55.59
49178;BME280;35016;55.674;37.468;2023-05-12T02:37:30;99652.53;;;10.43;55.84
49178;BME280;35016;55.674;37.468;2023-05-12T02:39:57;99648.50;;;10.45;55.64
49178;BME280;35016;55.674;37.468;2023-05-12T02:42:25;99650.97;;;10.47;55.28
49178;BME280;35016;55.674;37.468;2023-05-12T02:44:54;99655.34;;;10.53;55.30
49178;BME280;35016;55.674;37.468;2023-05-12T02:47:22;99650.22;;;10.57;55.31
49178;BME280;35016;55.674;37.468;2023-05-12T02:49:49;99651.09;;;10.62;55.33
49178;BME280;35016;55.674;37.468;2023-05-12T02:52:17;99650.06;;;10.68;55.41
49178;BME280;35016;55.674;37.468;2023-05-12T02:54:44;99661.00;;;10.73;54.93
49178;BME280;35016;55.674;37.468;2023-05-12T02:57:11;99652.63;;;10.80;54.67
49178;BME280;35016;55.674;37.468;2023-05-12T02:59:38;99665.44;;;10.84;54.86
49178;BME280;35016;55.674;37.468;2023-05-12T03:02:06;99663.63;;;10.95;54.47
49178;BME280;35016;55.674;37.468;2023-05-12T03:04:33;99666.97;;;11.02;54.13
49178;BME280;35016;55.674;37.468;2023-05-12T03:07:01;99667.03;;;11.12;54.49
49178;BME280;35016;55.674;37.468;2023-05-12T03:09:28;99664.06;;;11.14;54.50
49178;BME280;35016;55.674;37.468;2023-05-12T03:11:56;99651.13;;;11.26;53.92
49178;BME280;35016;55.674;37.468;2023-05-12T03:14:23;99656.63;;;11.31;54.60
49178;BME280;35016;55.674;37.468;2023-05-12T03:16:52;99660.44;;;11.35;54.38
49178;BME280;35016;55.674;37.468;2023-05-12T03:19:19;99657.22;;;11.43;53.79
49178;BME280;35016;55.674;37.468;2023-05-12T03:21:46;99660.28;;;11.52;54.61
49178;BME280;35016;55.674;37.468;2023-05-12T03:24:13;99656.25;;;11.60;53.98
49178;BME280;35016;55.674;37.468;2023-05-12T03:26:41;99650.59;;;11.66;53.84
49178;BME280;35016;55.674;37.468;2023-05-12T03:29:08;99661.78;;;11.75;53.44
49178;BME280;35016;55.674;37.468;2023-05-12T03:31:35;99649.06;;;11.81;53.38
49178;BME280;35016;55.674;37.468;2023-05-12T03:34:03;99651.84;;;11.86;53.47
49178;BME280;35016;55.674;37.468;2023-05-12T03:36:30;99652.41;;;11.93;53.31
49178;BME280;35016;55.674;37.468;2023-05-12T03:38:57;99657.59;;;11.99;53.27
49178;BME280;35016;55.674;37.468;2023-05-12T03:41:24;99657.59;;;12.04;53.11
49178;BME280;35016;55.674;37.468;2023-05-12T03:43:51;99659.25;;;12.10;52.48
49178;BME280;35016;55.674;37.468;2023-05-12T03:46:19;99651.69;;;12.18;52.75
49178;BME280;35016;55.674;37.468;2023-05-12T03:48:46;99647.38;;;12.27;52.93
49178;BME280;35016;55.674;37.468;2023-05-12T03:51:14;99653.38;;;12.34;52.58
49178;BME280;35016;55.674;37.468;2023-05-12T03:53:41;99657.75;;;12.40;52.13
49178;BME280;35016;55.674;37.468;2023-05-12T03:56:12;99665.41;;;12.48;52.18
49178;BME280;35016;55.674;37.468;2023-05-12T03:58:42;99673.84;;;12.52;51.85
49178;BME280;35016;55.674;37.468;2023-05-12T04:01:09;99665.13;;;12.55;51.68
49178;BME280;35016;55.674;37.468;2023-05-12T04:03:36;99659.44;;;12.56;52.13
49178;BME280;35016;55.674;37.468;2023-05-12T04:06:03;99660.25;;;12.62;52.02
49178;BME280;35016;55.674;37.468;2023-05-12T04:08:31;99655.91;;;12.71;51.72
49178;BME280;35016;55.674;37.468;2023-05-12T04:11:00;99656.22;;;12.75;51.33
49178;BME280;35016;55.674;37.468;2023-05-12T04:13:28;99644.50;;;12.79;51.23
49178;BME280;35016;55.674;37.468;2023-05-12T04:15:57;99650.22;;;12.83;51.20
49178;BME280;35016;55.674;37.468;2023-05-12T04:18:26;99645.06;;;12.91;51.34
49178;BME280;35016;55.674;37.468;2023-05-12T04:20:54;99649.97;;;12.99;51.19
49178;BME280;35016;55.674;37.468;2023-05-12T04:23:21;99645.91;;;13.07;51.15
49178;BME280;35016;55.674;37.468;2023-05-12T04:25:49;99642.34;;;13.17;51.00
49178;BME280;35016;55.674;37.468;2023-05-12T04:28:16;99643.19;;;13.22;50.82
49178;BME280;35016;55.674;37.468;2023-05-12T04:30:44;99645.13;;;13.32;50.51
49178;BME280;35016;55.674;37.468;2023-05-12T04:33:11;99642.38;;;13.42;50.39
49178;BME280;35016;55.674;37.468;2023-05-12T04:35:39;99637.97;;;13.51;50.40
49178;BME280;35016;55.674;37.468;2023-05-12T04:38:08;99639.09;;;13.60;50.13
49178;BME280;35016;55.674;37.468;2023-05-12T04:40:36;99641.22;;;13.69;49.93
49178;BME280;35016;55.674;37.468;2023-05-12T04:43:03;99637.41;;;13.75;49.84
49178;BME280;35016;55.674;37.468;2023-05-12T04:45:31;99639.81;;;13.81;49.70
49178;BME280;35016;55.674;37.468;2023-05-12T04:47:58;99642.00;;;13.89;49.37
49178;BME280;35016;55.674;37.468;2023-05-12T04:50:25;99642.25;;;13.93;49.36
49178;BME280;35016;55.674;37.468;2023-05-12T04:52:53;99641.97;;;14.00;49.17
49178;BME280;35016;55.674;37.468;2023-05-12T04:55:20;99641.94;;;14.05;48.98
49178;BME280;35016;55.674;37.468;2023-05-12T04:57:48;99648.19;;;14.10;48.75
49178;BME280;35016;55.674;37.468;2023-05-12T05:00:15;99652.81;;;14.10;48.63
49178;BME280;35016;55.674;37.468;2023-05-12T05:02:44;99648.72;;;14.12;48.69
49178;BME280;35016;55.674;37.468;2023-05-12T05:05:11;99653.34;;;14.17;48.66
49178;BME280;35016;55.674;37.468;2023-05-12T05:07:39;99644.63;;;14.20;48.42
49178;BME280;35016;55.674;37.468;2023-05-12T05:10:06;99643.78;;;14.24;48.15
49178;BME280;35016;55.674;37.468;2023-05-12T05:12:34;99643.19;;;14.33;48.33
49178;BME280;35016;55.674;37.468;2023-05-12T05:15:01;99638.50;;;14.38;47.95
49178;BME280;35016;55.674;37.468;2023-05-12T05:17:32;99646.41;;;14.45;47.74
49178;BME280;35016;55.674;37.468;2023-05-12T05:19:59;99639.84;;;14.51;47.70
49178;BME280;35016;55.674;37.468;2023-05-12T05:22:32;99646.59;;;14.64;47.37
49178;BME280;35016;55.674;37.468;2023-05-12T05:24:59;99644.06;;;14.72;47.41
49178;BME280;35016;55.674;37.468;2023-05-12T05:27:30;99648.38;;;14.83;47.40
49178;BME280;35016;55.674;37.468;2023-05-12T05:29:57;99642.00;;;14.93;46.81
49178;BME280;35016;55.674;37.468;2023-05-12T05:32:25;99648.50;;;15.02;46.52
49178;BME280;35016;55.674;37.468;2023-05-12T05:34:52;99649.00;;;15.09;46.40
49178;BME280;35016;55.674;37.468;2023-05-12T05:37:19;99641.34;;;15.11;46.58
49178;BME280;35016;55.674;37.468;2023-05-12T05:39:47;99640.66;;;15.25;46.04
49178;BME280;35016;55.674;37.468;2023-05-12T05:42:14;99649.91;;;15.34;45.99
49178;BME280;35016;55.674;37.468;2023-05-12T05:44:41;99639.44;;;15.41;46.03
49178;BME280;35016;55.674;37.468;2023-05-12T05:47:09;99638.00;;;15.48;45.64
49178;BME280;35016;55.674;37.468;2023-05-12T05:49:37;99641.72;;;15.58;45.90
49178;BME280;35016;55.674;37.468;2023-05-12T05:52:05;99640.63;;;15.64;45.66
49178;BME280;35016;55.674;37.468;2023-05-12T05:54:32;99637.31;;;15.67;45.53
49178;BME280;35016;55.674;37.468;2023-05-12T05:56:59;99641.63;;;15.73;45.37
49178;BME280;35016;55.674;37.468;2023-05-12T05:59:28;99640.44;;;15.79;45.36
49178;BME280;35016;55.674;37.468;2023-05-12T06:01:56;99635.66;;;15.90;45.03
49178;BME280;35016;55.674;37.468;2023-05-12T06:04:23;99647.56;;;16.04;45.12
49178;BME280;35016;55.674;37.468;2023-05-12T06:06:50;99640.31;;;16.13;44.67
49178;BME280;35016;55.674;37.468;2023-05-12T06:09:19;99635.84;;;16.22;44.59
49178;BME280;35016;55.674;37.468;2023-05-12T06:11:47;99637.94;;;16.30;44.99
49178;BME280;35016;55.674;37.468;2023-05-12T06:14:15;99636.97;;;16.40;44.49
49178;BME280;35016;55.674;37.468;2023-05-12T06:16:42;99636.59;;;16.47;44.24
49178;BME280;35016;55.674;37.468;2023-05-12T06:19:10;99636.56;;;16.52;43.91
49178;BME280;35016;55.674;37.468;2023-05-12T06:21:39;99637.06;;;16.54;44.12
49178;BME280;35016;55.674;37.468;2023-05-12T06:24:06;99640.84;;;16.58;43.82
49178;BME280;35016;55.674;37.468;2023-05-12T06:26:35;99639.13;;;16.62;43.80
49178;BME280;35016;55.674;37.468;2023-05-12T06:29:05;99639.66;;;16.64;43.16
49178;BME280;35016;55.674;37.468;2023-05-12T06:31:32;99636.28;;;16.72;43.39
49178;BME280;35016;55.674;37.468;2023-05-12T06:33:59;99641.97;;;16.76;42.80
49178;BME280;35016;55.674;37.468;2023-05-12T06:36:26;99635.09;;;16.78;42.75
49178;BME280;35016;55.674;37.468;2023-05-12T06:38:55;99638.06;;;16.82;42.24
49178;BME280;35016;55.674;37.468;2023-05-12T06:41:22;99635.25;;;16.87;41.67
49178;BME280;35016;55.674;37.468;2023-05-12T06:43:51;99627.75;;;16.92;41.78
49178;BME280;35016;55.674;37.468;2023-05-12T06:46:26;99627.06;;;17.00;41.44
49178;BME280;35016;55.674;37.468;2023-05-12T06:48:53;99638.78;;;17.06;41.05
49178;BME280;35016;55.674;37.468;2023-05-12T06:51:23;99633.72;;;17.13;40.65
49178;BME280;35016;55.674;37.468;2023-05-12T06:53:50;99633.63;;;17.18;40.44
49178;BME280;35016;55.674;37.468;2023-05-12T06:56:17;99626.34;;;17.27;40.02
49178;BME280;35016;55.674;37.468;2023-05-12T06:58:45;99633.91;;;17.36;39.68
49178;BME280;35016;55.674;37.468;2023-05-12T07:01:14;99630.78;;;17.42;38.88
49178;BME280;35016;55.674;37.468;2023-05-12T07:03:41;99631.69;;;17.51;38.15
49178;BME280;35016;55.674;37.468;2023-05-12T07:06:08;99627.22;;;17.55;38.19
49178;BME280;35016;55.674;37.468;2023-05-12T07:08:35;99629.00;;;17.65;38.25
49178;BME280;35016;55.674;37.468;2023-05-12T07:11:03;99632.97;;;17.73;37.63
49178;BME280;35016;55.674;37.468;2023-05-12T07:13:30;99629.31;;;17.77;37.36
49178;BME280;35016;55.674;37.468;2023-05-12T07:15:57;99631.16;;;17.82;37.45
49178;BME280;35016;55.674;37.468;2023-05-12T07:18:24;99634.31;;;17.89;37.47
49178;BME280;35016;55.674;37.468;2023-05-12T07:20:51;99625.69;;;17.95;37.52
49178;BME280;35016;55.674;37.468;2023-05-12T07:23:19;99631.06;;;18.01;37.24
49178;BME280;35016;55.674;37.468;2023-05-12T07:25:46;99626.59;;;18.05;37.02
49178;BME280;35016;55.674;37.468;2023-05-12T07:28:13;99620.50;;;18.08;36.46
49178;BME280;35016;55.674;37.468;2023-05-12T07:30:41;99624.03;;;18.08;36.39
49178;BME280;35016;55.674;37.468;2023-05-12T07:33:08;99626.28;;;18.06;36.33
49178;BME280;35016;55.674;37.468;2023-05-12T07:35:36;99623.66;;;18.01;36.20
49178;BME280;35016;55.674;37.468;2023-05-12T07:38:03;99626.38;;;18.15;36.28
49178;BME280;35016;55.674;37.468;2023-05-12T07:40:30;99625.13;;;18.21;35.89
49178;BME280;35016;55.674;37.468;2023-05-12T07:42:57;99624.25;;;18.25;35.76
49178;BME280;35016;55.674;37.468;2023-05-12T07:45:24;99618.94;;;18.29;35.46
49178;BME280;35016;55.674;37.468;2023-05-12T07:47:51;99620.75;;;18.34;35.20
49178;BME280;35016;55.674;37.468;2023-05-12T07:50:19;99623.41;;;18.39;35.09
49178;BME280;35016;55.674;37.468;2023-05-12T07:52:48;99622.34;;;18.48;34.90
49178;BME280;35016;55.674;37.468;2023-05-12T07:55:17;99626.00;;;18.57;34.78
49178;BME280;35016;55.674;37.468;2023-05-12T07:57:44;99609.31;;;18.68;34.25
49178;BME280;35016;55.674;37.468;2023-05-12T08:00:12;99614.28;;;18.79;34.16
49178;BME280;35016;55.674;37.468;2023-05-12T08:02:41;99615.97;;;18.89;33.91
49178;BME280;35016;55.674;37.468;2023-05-12T08:05:09;99618.78;;;18.98;33.50
49178;BME280;35016;55.674;37.468;2023-05-12T08:07:37;99621.25;;;19.08;33.30
49178;BME280;35016;55.674;37.468;2023-05-12T08:10:06;99610.66;;;19.15;32.96
49178;BME280;35016;55.674;37.468;2023-05-12T08:12:35;99614.28;;;19.24;32.85
49178;BME280;35016;55.674;37.468;2023-05-12T08:15:02;99609.94;;;19.32;32.61
49178;BME280;35016;55.674;37.468;2023-05-12T08:17:32;99607.06;;;19.37;32.20
49178;BME280;35016;55.674;37.468;2023-05-12T08:20:00;99605.00;;;19.42;31.85
49178;BME280;35016;55.674;37.468;2023-05-12T08:22:35;99590.97;;;19.53;31.56
49178;BME280;35016;55.674;37.468;2023-05-12T08:25:02;99595.22;;;19.59;31.02
49178;BME280;35016;55.674;37.468;2023-05-12T08:27:32;99607.53;;;19.61;30.80
49178;BME280;35016;55.674;37.468;2023-05-12T08:29:59;99589.59;;;19.64;30.46
49178;BME280;35016;55.674;37.468;2023-05-12T08:32:26;99582.66;;;19.66;30.05
49178;BME280;35016;55.674;37.468;2023-05-12T08:34:54;99589.16;;;19.70;29.88
49178;BME280;35016;55.674;37.468;2023-05-12T08:37:21;99596.63;;;19.78;29.68
49178;BME280;35016;55.674;37.468;2023-05-12T08:39:48;99595.84;;;19.87;29.40
49178;BME280;35016;55.674;37.468;2023-05-12T08:42:42;99589.75;;;19.98;27.85
49178;BME280;35016;55.674;37.468;2023-05-12T08:45:13;99593.31;;;20.07;29.12
49178;BME280;35016;55.674;37.468;2023-05-12T08:47:40;99586.69;;;20.17;28.94
49178;BME280;35016;55.674;37.468;2023-05-12T08:50:09;99582.34;;;20.25;28.69
49178;BME280;35016;55.674;37.468;2023-05-12T08:52:37;99582.38;;;20.33;28.57
49178;BME280;35016;55.674;37.468;2023-05-12T08:55:06;99594.56;;;20.41;28.33
49178;BME280;35016;55.674;37.468;2023-05-12T08:57:36;99573.94;;;20.38;28.17
49178;BME280;35016;55.674;37.468;2023-05-12T09:00:06;99579.44;;;20.30;28.43
49178;BME280;35016;55.674;37.468;2023-05-12T09:02:36;99580.41;;;20.34;28.17
49178;BME280;35016;55.674;37.468;2023-05-12T09:05:20;99577.84;;;20.46;28.18
49178;BME280;35016;55.674;37.468;2023-05-12T09:07:48;99561.81;;;20.65;28.18
49178;BME280;35016;55.674;37.468;2023-05-12T09:10:17;99555.16;;;20.92;28.06
49178;BME280;35016;55.674;37.468;2023-05-12T09:13:22;99561.63;;;21.14;27.02
49178;BME280;35016;55.674;37.468;2023-05-12T09:15:52;99562.56;;;21.18;27.76
49178;BME280;35016;55.674;37.468;2023-05-12T09:18:22;99557.38;;;21.16;27.56
49178;BME280;35016;55.674;37.468;2023-05-12T09:20:49;99581.25;;;21.12;27.51
49178;BME280;35016;55.674;37.468;2023-05-12T09:23:18;99562.94;;;20.99;27.29
49178;BME280;35016;55.674;37.468;2023-05-12T09:25:46;99575.91;;;20.90;27.30
49178;BME280;35016;55.674;37.468;2023-05-12T09:28:14;99568.16;;;20.83;27.24
49178;BME280;35016;55.674;37.468;2023-05-12T09:30:41;99555.66;;;20.86;27.22
49178;BME280;35016;55.674;37.468;2023-05-12T09:33:10;99560.16;;;21.08;27.01
49178;BME280;35016;55.674;37.468;2023-05-12T09:38:07;99551.56;;;21.64;26.55
49178;BME280;35016;55.674;37.468;2023-05-12T09:40:35;99551.44;;;21.90;26.27
49178;BME280;35016;55.674;37.468;2023-05-12T09:43:04;99553.50;;;22.02;25.96
49178;BME280;35016;55.674;37.468;2023-05-12T09:45:36;99551.50;;;22.11;25.89
49178;BME280;35016;55.674;37.468;2023-05-12T09:48:08;99546.13;;;22.15;25.32
49178;BME280;35016;55.674;37.468;2023-05-12T09:50:48;99544.03;;;22.12;24.80
49178;BME280;35016;55.674;37.468;2023-05-12T09:53:17;99541.47;;;22.07;26.08
49178;BME280;35016;55.674;37.468;2023-05-12T09:55:46;99551.03;;;22.09;26.11
49178;BME280;35016;55.674;37.468;2023-05-12T09:58:15;99549.28;;;22.05;25.85
49178;BME280;35016;55.674;37.468;2023-05-12T10:00:43;99541.00;;;21.96;26.15
49178;BME280;35016;55.674;37.468;2023-05-12T10:03:19;99539.97;;;21.80;26.29
49178;BME280;35016;55.674;37.468;2023-05-12T10:05:54;99542.44;;;21.73;25.76
49178;BME280;35016;55.674;37.468;2023-05-12T10:08:27;99540.22;;;21.57;25.80
49178;BME280;35016;55.674;37.468;2023-05-12T10:10:58;99537.63;;;21.61;25.65
49178;BME280;35016;55.674;37.468;2023-05-12T10:13:26;99539.63;;;21.81;25.73
49178;BME280;35016;55.674;37.468;2023-05-12T10:15:57;99536.63;;;22.04;24.88
49178;BME280;35016;55.674;37.468;2023-05-12T10:18:25;99538.25;;;22.25;25.37
49178;BME280;35016;55.674;37.468;2023-05-12T10:20:52;99540.69;;;22.48;25.18
49178;BME280;35016;55.674;37.468;2023-05-12T10:23:20;99539.94;;;22.60;25.20
49178;BME280;35016;55.674;37.468;2023-05-12T10:25:48;99530.41;;;22.69;25.14
49178;BME280;35016;55.674;37.468;2023-05-12T10:28:15;99531.69;;;22.72;24.94
49178;BME280;35016;55.674;37.468;2023-05-12T10:30:43;99545.66;;;22.54;24.82
49178;BME280;35016;55.674;37.468;2023-05-12T10:33:11;99532.66;;;22.34;24.87
49178;BME280;35016;55.674;37.468;2023-05-12T10:35:38;99534.59;;;22.13;24.98
49178;BME280;35016;55.674;37.468;2023-05-12T10:38:07;99535.00;;;21.94;24.99
49178;BME280;35016;55.674;37.468;2023-05-12T10:40:35;99527.78;;;21.81;25.25
49178;BME280;35016;55.674;37.468;2023-05-12T10:43:02;99526.69;;;21.73;25.17
49178;BME280;35016;55.674;37.468;2023-05-12T10:45:35;99539.84;;;21.76;24.86
49178;BME280;35016;55.674;37.468;2023-05-12T10:48:04;99534.13;;;21.81;25.33
49178;BME280;35016;55.674;37.468;2023-05-12T10:50:32;99541.00;;;21.96;25.14
49178;BME280;35016;55.674;37.468;2023-05-12T10:53:00;99535.13;;;22.06;25.14
49178;BME280;35016;55.674;37.468;2023-05-12T10:55:41;99548.56;;;22.16;24.72
49178;BME280;35016;55.674;37.468;2023-05-12T10:58:10;99540.81;;;22.10;25.30
49178;BME280;35016;55.674;37.468;2023-05-12T11:00:50;99541.00;;;22.05;24.76
49178;BME280;35016;55.674;37.468;2023-05-12T11:03:23;99536.28;;;21.96;25.11
49178;BME280;35016;55.674;37.468;2023-05-12T11:06:02;99528.50;;;21.99;24.93
49178;BME280;35016;55.674;37.468;2023-05-12T11:08:31;99538.53;;;22.03;25.51
49178;BME280;35016;55.674;37.468;2023-05-12T11:11:01;99545.19;;;22.11;25.37
49178;BME280;35016;55.674;37.468;2023-05-12T11:13:29;99530.28;;;22.24;25.37
49178;BME280;35016;55.674;37.468;2023-05-12T11:15:56;99540.88;;;22.43;25.21
49178;BME280;35016;55.674;37.468;2023-05-12T11:18:24;99534.28;;;22.56;25.07
49178;BME280;35016;55.674;37.468;2023-05-12T11:20:51;99531.66;;;22.60;24.95
49178;BME280;35016;55.674;37.468;2023-05-12T11:23:25;99542.38;;;22.61;24.46
49178;BME280;35016;55.674;37.468;2023-05-12T11:25:55;99533.75;;;22.63;24.82
49178;BME280;35016;55.674;37.468;2023-05-12T11:28:23;99535.94;;;22.69;24.82
49178;BME280;35016;55.674;37.468;2023-05-12T11:30:51;99543.00;;;22.79;24.84
49178;BME280;35016;55.674;37.468;2023-05-12T11:33:21;99539.41;;;22.87;24.59
49178;BME280;35016;55.674;37.468;2023-05-12T11:35:51;99520.19;;;22.91;24.28
49178;BME280;35016;55.674;37.468;2023-05-12T11:38:18;99520.19;;;23.03;24.18
49178;BME280;35016;55.674;37.468;2023-05-12T11:40:45;99517.72;;;23.34;23.88
49178;BME280;35016;55.674;37.468;2023-05-12T11:43:13;99515.47;;;23.61;23.62
49178;BME280;35016;55.674;37.468;2023-05-12T11:45:40;99508.19;;;23.93;23.31
49178;BME280;35016;55.674;37.468;2023-05-12T11:48:10;99512.06;;;24.28;23.12
49178;BME280;35016;55.674;37.468;2023-05-12T11:50:43;99523.63;;;24.70;23.01
49178;BME280;35016;55.674;37.468;2023-05-12T11:53:17;99515.69;;;25.13;22.19
49178;BME280;35016;55.674;37.468;2023-05-12T11:55:48;99521.34;;;25.63;22.28
49178;BME280;35016;55.674;37.468;2023-05-12T11:58:25;99514.16;;;26.10;21.96
49178;BME280;35016;55.674;37.468;2023-05-12T12:00:56;99507.41;;;26.65;22.29
49178;BME280;35016;55.674;37.468;2023-05-12T12:03:23;99505.09;;;27.09;21.53
49178;BME280;35016;55.674;37.468;2023-05-12T12:05:59;99531.81;;;27.33;20.13
49178;BME280;35016;55.674;37.468;2023-05-12T12:08:27;99514.91;;;27.23;21.26
49178;BME280;35016;55.674;37.468;2023-05-12T12:10:54;99498.88;;;27.39;21.28
49178;BME280;35016;55.674;37.468;2023-05-12T12:13:23;99511.88;;;27.77;20.73
49178;BME280;35016;55.674;37.468;2023-05-12T12:15:51;99495.50;;;28.28;20.43
49178;BME280;35016;55.674;37.468;2023-05-12T12:18:18;99490.41;;;28.97;20.05
49178;BME280;35016;55.674;37.468;2023-05-12T12:20:46;99490.03;;;29.91;19.67
49178;BME280;35016;55.674;37.468;2023-05-12T12:23:13;99488.31;;;30.38;18.92
49178;BME280;35016;55.674;37.468;2023-05-12T12:25:40;99490.44;;;29.93;18.88
49178;BME280;35016;55.674;37.468;2023-05-12T12:28:07;99487.75;;;29.12;18.83
49178;BME280;35016;55.674;37.468;2023-05-12T12:30:34;99482.97;;;28.45;19.41
49178;BME280;35016;55.674;37.468;2023-05-12T12:33:01;99476.69;;;27.95;19.63
49178;BME280;35016;55.674;37.468;2023-05-12T12:35:28;99469.97;;;27.47;19.68
49178;BME280;35016;55.674;37.468;2023-05-12T12:37:57;99484.16;;;26.96;20.00
49178;BME280;35016;55.674;37.468;2023-05-12T12:40:24;99478.78;;;26.65;20.26
49178;BME280;35016;55.674;37.468;2023-05-12T12:42:51;99490.66;;;26.62;19.90
49178;BME280;35016;55.674;37.468;2023-05-12T12:45:19;99480.22;;;26.78;19.82
49178;BME280;35016;55.674;37.468;2023-05-12T12:47:46;99487.34;;;27.17;19.42
49178;BME280;35016;55.674;37.468;2023-05-12T12:50:13;99488.22;;;27.44;19.23
49178;BME280;35016;55.674;37.468;2023-05-12T12:52:41;99478.25;;;27.66;19.11
49178;BME280;35016;55.674;37.468;2023-05-12T12:55:09;99465.50;;;27.92;18.77
49178;BME280;35016;55.674;37.468;2023-05-12T12:57:36;99465.38;;;28.11;18.84
49178;BME280;35016;55.674;37.468;2023-05-12T13:00:03;99472.22;;;28.17;18.61